CJU weather

Jeju International Airport
Jeju City, Jejudo, South Korea

Public forecast

Using degrees Celsius for public forecast. Weather courtesy of forecast.io.

METAR (pilot weather report)

Retrieved 2019/03/19 07:00 UTC (49 minutes ago):

RKPC 190700Z 27009KT 250V310 CAVOK 13/09 Q1018 NOSIG

TAF (pilot weather forecast)

Retrieved 2019/03/19 06:00 UTC (2 hours ago):

TAF RKPC 190500Z 1906/2012 29008KT CAVOK TN08/1921Z TX19/2004Z BECMG 1911/1912 35008KT BECMG 1918/1919 06008KT BECMG 2002/2003 17012KT 9999 FEW010 BKN030 OVC100 BECMG 2006/2007 6000 -RA BECMG 2008/2009 21015G25KT 4200